sensor_id;sensor_type;location;lat;lon;timestamp;pressure;altitude;pressure_sealevel;temperature;humidity
50672;BME280;46021;55.882;37.654;2022-11-09T00:00:51;99394.25;;;5.41;89.55
50672;BME280;46021;55.882;37.654;2022-11-09T00:03:19;99391.69;;;5.41;89.30
50672;BME280;46021;55.882;37.654;2022-11-09T00:05:54;99387.44;;;5.39;89.07
50672;BME280;46021;55.882;37.654;2022-11-09T00:08:21;99398.59;;;5.39;89.05
50672;BME280;46021;55.882;37.654;2022-11-09T00:10:48;99392.50;;;5.45;89.16
50672;BME280;46021;55.882;37.654;2022-11-09T00:13:16;99397.56;;;5.50;89.41
50672;BME280;46021;55.882;37.654;2022-11-09T00:15:43;99397.69;;;5.42;88.89
50672;BME280;46021;55.882;37.654;2022-11-09T00:18:10;99396.91;;;5.37;89.02
50672;BME280;46021;55.882;37.654;2022-11-09T00:20:38;99385.72;;;5.36;88.75
50672;BME280;46021;55.882;37.654;2022-11-09T00:23:06;99389.09;;;5.41;88.97
50672;BME280;46021;55.882;37.654;2022-11-09T00:25:33;99395.19;;;5.37;88.77
50672;BME280;46021;55.882;37.654;2022-11-09T00:28:00;99411.44;;;5.45;89.31
50672;BME280;46021;55.882;37.654;2022-11-09T00:30:27;99398.59;;;5.41;89.06
50672;BME280;46021;55.882;37.654;2022-11-09T00:32:55;99407.19;;;5.43;88.61
50672;BME280;46021;55.882;37.654;2022-11-09T00:35:22;99406.38;;;5.39;88.39
50672;BME280;46021;55.882;37.654;2022-11-09T00:37:51;99412.38;;;5.40;88.74
50672;BME280;46021;55.882;37.654;2022-11-09T00:40:18;99407.22;;;5.40;89.03
50672;BME280;46021;55.882;37.654;2022-11-09T00:42:45;99412.41;;;5.37;88.68
50672;BME280;46021;55.882;37.654;2022-11-09T00:45:14;99411.47;;;5.42;88.62
50672;BME280;46021;55.882;37.654;2022-11-09T00:47:43;99413.22;;;5.40;88.91
50672;BME280;46021;55.882;37.654;2022-11-09T00:50:11;99407.16;;;5.44;88.50
50672;BME280;46021;55.882;37.654;2022-11-09T00:52:38;99413.97;;;5.50;89.03
50672;BME280;46021;55.882;37.654;2022-11-09T00:55:07;99416.50;;;5.52;88.75
50672;BME280;46021;55.882;37.654;2022-11-09T00:57:35;99412.38;;;5.40;88.96
50672;BME280;46021;55.882;37.654;2022-11-09T01:00:03;99410.47;;;5.51;88.60
50672;BME280;46021;55.882;37.654;2022-11-09T01:02:30;99417.41;;;5.51;88.27
50672;BME280;46021;55.882;37.654;2022-11-09T01:04:58;99413.09;;;5.50;88.57
50672;BME280;46021;55.882;37.654;2022-11-09T01:07:25;99407.91;;;5.50;88.89
50672;BME280;46021;55.882;37.654;2022-11-09T01:09:53;99414.81;;;5.51;88.73
50672;BME280;46021;55.882;37.654;2022-11-09T01:12:24;99418.28;;;5.48;88.44
50672;BME280;46021;55.882;37.654;2022-11-09T01:14:51;99412.25;;;5.47;88.42
50672;BME280;46021;55.882;37.654;2022-11-09T01:17:18;99422.56;;;5.51;88.35
50672;BME280;46021;55.882;37.654;2022-11-09T01:19:46;99418.25;;;5.50;88.55
50672;BME280;46021;55.882;37.654;2022-11-09T01:22:13;99414.84;;;5.47;88.42
50672;BME280;46021;55.882;37.654;2022-11-09T01:24:41;99429.50;;;5.49;88.81
50672;BME280;46021;55.882;37.654;2022-11-09T01:27:08;99418.25;;;5.50;88.74
50672;BME280;46021;55.882;37.654;2022-11-09T01:29:36;99415.66;;;5.50;89.03
50672;BME280;46021;55.882;37.654;2022-11-09T01:32:04;99421.75;;;5.49;88.75
50672;BME280;46021;55.882;37.654;2022-11-09T01:34:31;99420.84;;;5.48;89.20
50672;BME280;46021;55.882;37.654;2022-11-09T01:37:01;99419.97;;;5.51;89.01
50672;BME280;46021;55.882;37.654;2022-11-09T01:39:29;99428.69;;;5.45;89.11
50672;BME280;46021;55.882;37.654;2022-11-09T01:41:56;99422.63;;;5.46;89.01
50672;BME280;46021;55.882;37.654;2022-11-09T01:44:26;99420.97;;;5.40;89.37
50672;BME280;46021;55.882;37.654;2022-11-09T01:46:57;99419.31;;;5.38;89.44
50672;BME280;46021;55.882;37.654;2022-11-09T01:49:35;99426.97;;;5.42;89.61
50672;BME280;46021;55.882;37.654;2022-11-09T01:52:10;99426.97;;;5.44;89.50
50672;BME280;46021;55.882;37.654;2022-11-09T01:54:41;99421.81;;;5.42;89.39
50672;BME280;46021;55.882;37.654;2022-11-09T01:57:17;99428.56;;;5.53;89.55
50672;BME280;46021;55.882;37.654;2022-11-09T01:59:49;99435.47;;;5.52;89.51
50672;BME280;46021;55.882;37.654;2022-11-09T02:02:19;99439.00;;;5.46;89.18
50672;BME280;46021;55.882;37.654;2022-11-09T02:04:50;99438.09;;;5.47;89.18
50672;BME280;46021;55.882;37.654;2022-11-09T02:07:21;99438.06;;;5.52;89.54
50672;BME280;46021;55.882;37.654;2022-11-09T02:09:51;99432.00;;;5.52;89.53
50672;BME280;46021;55.882;37.654;2022-11-09T02:12:21;99430.34;;;5.47;89.80
50672;BME280;46021;55.882;37.654;2022-11-09T02:14:51;99435.50;;;5.51;89.47
50672;BME280;46021;55.882;37.654;2022-11-09T02:17:21;99443.16;;;5.55;89.46
50672;BME280;46021;55.882;37.654;2022-11-09T02:19:50;99445.81;;;5.52;89.56
50672;BME280;46021;55.882;37.654;2022-11-09T02:22:20;99443.19;;;5.54;89.96
50672;BME280;46021;55.882;37.654;2022-11-09T02:24:47;99446.63;;;5.56;89.38
50672;BME280;46021;55.882;37.654;2022-11-09T02:27:16;99450.06;;;5.55;89.89
50672;BME280;46021;55.882;37.654;2022-11-09T02:29:44;99443.25;;;5.51;89.73
50672;BME280;46021;55.882;37.654;2022-11-09T02:32:16;99437.13;;;5.58;89.72
50672;BME280;46021;55.882;37.654;2022-11-09T02:34:45;99443.03;;;5.63;89.65
50672;BME280;46021;55.882;37.654;2022-11-09T02:37:12;99438.78;;;5.60;89.37
50672;BME280;46021;55.882;37.654;2022-11-09T02:39:52;99450.03;;;5.58;89.75
50672;BME280;46021;55.882;37.654;2022-11-09T02:42:19;99451.72;;;5.59;89.52
50672;BME280;46021;55.882;37.654;2022-11-09T02:44:49;99450.91;;;5.57;89.95
50672;BME280;46021;55.882;37.654;2022-11-09T02:47:18;99450.00;;;5.59;90.05
50672;BME280;46021;55.882;37.654;2022-11-09T02:49:46;99446.56;;;5.57;89.95
50672;BME280;46021;55.882;37.654;2022-11-09T02:52:14;99458.53;;;5.64;89.63
50672;BME280;46021;55.882;37.654;2022-11-09T02:54:44;99450.88;;;5.60;89.92
50672;BME280;46021;55.882;37.654;2022-11-09T02:57:14;99459.50;;;5.59;89.98
50672;BME280;46021;55.882;37.654;2022-11-09T02:59:42;99456.06;;;5.57;90.35
50672;BME280;46021;55.882;37.654;2022-11-09T03:02:09;99456.06;;;5.57;89.95
50672;BME280;46021;55.882;37.654;2022-11-09T03:04:38;99454.31;;;5.59;90.04
50672;BME280;46021;55.882;37.654;2022-11-09T03:07:06;99450.81;;;5.63;89.78
50672;BME280;46021;55.882;37.654;2022-11-09T03:09:33;99461.97;;;5.65;90.10
50672;BME280;46021;55.882;37.654;2022-11-09T03:12:00;99459.34;;;5.68;90.10
50672;BME280;46021;55.882;37.654;2022-11-09T03:14:49;99462.78;;;5.67;90.00
50672;BME280;46021;55.882;37.654;2022-11-09T03:17:17;99463.69;;;5.66;90.52
50672;BME280;46021;55.882;37.654;2022-11-09T03:19:44;99463.66;;;5.69;90.19
50672;BME280;46021;55.882;37.654;2022-11-09T03:22:12;99469.66;;;5.71;90.54
50672;BME280;46021;55.882;37.654;2022-11-09T03:24:39;99466.16;;;5.74;90.09
50672;BME280;46021;55.882;37.654;2022-11-09T03:27:07;99461.06;;;5.69;90.09
50672;BME280;46021;55.882;37.654;2022-11-09T03:29:34;99470.47;;;5.73;90.12
50672;BME280;46021;55.882;37.654;2022-11-09T03:32:03;99463.59;;;5.72;90.06
50672;BME280;46021;55.882;37.654;2022-11-09T03:34:31;99466.13;;;5.75;90.12
50672;BME280;46021;55.882;37.654;2022-11-09T03:36:58;99467.84;;;5.76;90.08
50672;BME280;46021;55.882;37.654;2022-11-09T03:39:25;99466.19;;;5.72;90.21
50672;BME280;46021;55.882;37.654;2022-11-09T03:41:52;99475.66;;;5.73;89.94
50672;BME280;46021;55.882;37.654;2022-11-09T03:44:19;99473.84;;;5.78;90.07
50672;BME280;46021;55.882;37.654;2022-11-09T03:46:46;99476.41;;;5.80;89.87
50672;BME280;46021;55.882;37.654;2022-11-09T03:49:15;99472.94;;;5.82;89.98
50672;BME280;46021;55.882;37.654;2022-11-09T03:51:42;99469.44;;;5.83;89.62
50672;BME280;46021;55.882;37.654;2022-11-09T03:54:09;99472.03;;;5.85;89.89
50672;BME280;46021;55.882;37.654;2022-11-09T03:56:36;99466.00;;;5.84;89.76
50672;BME280;46021;55.882;37.654;2022-11-09T03:59:03;99471.09;;;5.88;89.81
50672;BME280;46021;55.882;37.654;2022-11-09T04:01:31;99473.75;;;5.86;89.79
50672;BME280;46021;55.882;37.654;2022-11-09T04:03:58;99468.66;;;5.78;89.92
50672;BME280;46021;55.882;37.654;2022-11-09T04:06:27;99477.16;;;5.86;89.96
50672;BME280;46021;55.882;37.654;2022-11-09T04:08:54;99475.41;;;5.90;89.60
50672;BME280;46021;55.882;37.654;2022-11-09T04:11:21;99486.53;;;5.94;89.88
50672;BME280;46021;55.882;37.654;2022-11-09T04:13:48;99481.44;;;5.88;89.53
50672;BME280;46021;55.882;37.654;2022-11-09T04:16:15;99475.38;;;5.92;89.81
50672;BME280;46021;55.882;37.654;2022-11-09T04:18:42;99480.50;;;5.93;89.58
50672;BME280;46021;55.882;37.654;2022-11-09T04:21:09;99483.06;;;5.98;89.67
50672;BME280;46021;55.882;37.654;2022-11-09T04:23:38;99470.16;;;5.93;89.24
50672;BME280;46021;55.882;37.654;2022-11-09T04:26:05;99484.81;;;5.96;89.59
50672;BME280;46021;55.882;37.654;2022-11-09T04:28:32;99474.47;;;5.96;89.63
50672;BME280;46021;55.882;37.654;2022-11-09T04:31:00;99477.91;;;5.93;89.62
50672;BME280;46021;55.882;37.654;2022-11-09T04:33:28;99481.34;;;5.97;89.62
50672;BME280;46021;55.882;37.654;2022-11-09T04:36:00;99478.72;;;6.00;89.53
50672;BME280;46021;55.882;37.654;2022-11-09T04:38:28;99478.63;;;6.03;89.53
50672;BME280;46021;55.882;37.654;2022-11-09T04:41:00;99485.63;;;5.99;88.75
50672;BME280;46021;55.882;37.654;2022-11-09T04:43:28;99477.81;;;6.01;89.24
50672;BME280;46021;55.882;37.654;2022-11-09T04:45:58;99468.25;;;6.06;88.99
50672;BME280;46021;55.882;37.654;2022-11-09T04:48:26;99479.38;;;6.11;89.28
50672;BME280;46021;55.882;37.654;2022-11-09T04:50:58;99487.22;;;6.07;88.90
50672;BME280;46021;55.882;37.654;2022-11-09T04:53:26;99487.13;;;6.13;89.03
50672;BME280;46021;55.882;37.654;2022-11-09T04:55:53;99493.16;;;6.13;88.85
50672;BME280;46021;55.882;37.654;2022-11-09T04:58:22;99504.38;;;6.12;88.95
50672;BME280;46021;55.882;37.654;2022-11-09T05:00:50;99506.97;;;6.12;88.77
50672;BME280;46021;55.882;37.654;2022-11-09T05:03:17;99494.09;;;6.09;88.57
50672;BME280;46021;55.882;37.654;2022-11-09T05:05:44;99512.06;;;6.18;88.73
50672;BME280;46021;55.882;37.654;2022-11-09T05:08:12;99520.56;;;6.23;88.56
50672;BME280;46021;55.882;37.654;2022-11-09T05:10:39;99511.03;;;6.27;88.40
50672;BME280;46021;55.882;37.654;2022-11-09T05:13:07;99517.13;;;6.24;88.50
50672;BME280;46021;55.882;37.654;2022-11-09T05:15:37;99507.56;;;6.28;87.84
50672;BME280;46021;55.882;37.654;2022-11-09T05:18:05;99515.25;;;6.33;88.30
50672;BME280;46021;55.882;37.654;2022-11-09T05:20:34;99507.47;;;6.34;88.14
50672;BME280;46021;55.882;37.654;2022-11-09T05:23:02;99499.56;;;6.42;88.06
50672;BME280;46021;55.882;37.654;2022-11-09T05:25:47;99497.81;;;6.42;87.51
50672;BME280;46021;55.882;37.654;2022-11-09T05:28:14;99499.50;;;6.45;88.24
50672;BME280;46021;55.882;37.654;2022-11-09T05:30:43;99503.75;;;6.48;88.12
50672;BME280;46021;55.882;37.654;2022-11-09T05:33:10;99510.81;;;6.39;87.92
50672;BME280;46021;55.882;37.654;2022-11-09T05:35:37;99515.94;;;6.42;87.70
50672;BME280;46021;55.882;37.654;2022-11-09T05:38:04;99518.50;;;6.44;87.69
50672;BME280;46021;55.882;37.654;2022-11-09T05:40:31;99509.88;;;6.43;87.77
50672;BME280;46021;55.882;37.654;2022-11-09T05:43:00;99512.63;;;6.36;87.55
50672;BME280;46021;55.882;37.654;2022-11-09T05:45:27;99515.91;;;6.44;87.91
50672;BME280;46021;55.882;37.654;2022-11-09T05:47:56;99513.28;;;6.47;87.74
50672;BME280;46021;55.882;37.654;2022-11-09T05:50:23;99520.97;;;6.50;88.04
50672;BME280;46021;55.882;37.654;2022-11-09T05:53:08;99513.16;;;6.53;87.76
50672;BME280;46021;55.882;37.654;2022-11-09T05:55:35;99513.13;;;6.56;87.62
50672;BME280;46021;55.882;37.654;2022-11-09T05:58:02;99521.63;;;6.61;87.57
50672;BME280;46021;55.882;37.654;2022-11-09T06:00:30;99527.63;;;6.65;87.19
50672;BME280;46021;55.882;37.654;2022-11-09T06:03:02;99525.00;;;6.67;87.12
50672;BME280;46021;55.882;37.654;2022-11-09T06:05:31;99507.84;;;6.61;87.10
50672;BME280;46021;55.882;37.654;2022-11-09T06:08:01;99520.59;;;6.72;87.82
50672;BME280;46021;55.882;37.654;2022-11-09T06:10:29;99526.66;;;6.71;87.80
50672;BME280;46021;55.882;37.654;2022-11-09T06:12:56;99513.00;;;6.62;87.07
50672;BME280;46021;55.882;37.654;2022-11-09T06:15:23;99518.03;;;6.70;86.84
50672;BME280;46021;55.882;37.654;2022-11-09T06:17:50;99529.09;;;6.78;86.72
50672;BME280;46021;55.882;37.654;2022-11-09T06:20:19;99524.81;;;6.77;86.98
50672;BME280;46021;55.882;37.654;2022-11-09T06:22:52;99526.56;;;6.77;87.19
50672;BME280;46021;55.882;37.654;2022-11-09T06:25:20;99529.84;;;6.85;87.35
50672;BME280;46021;55.882;37.654;2022-11-09T06:27:47;99535.16;;;6.79;86.38
50672;BME280;46021;55.882;37.654;2022-11-09T06:30:15;99542.88;;;6.80;86.84
50672;BME280;46021;55.882;37.654;2022-11-09T06:32:42;99542.09;;;6.77;86.77
50672;BME280;46021;55.882;37.654;2022-11-09T06:35:09;99541.28;;;6.75;86.62
50672;BME280;46021;55.882;37.654;2022-11-09T06:37:38;99546.41;;;6.76;86.61
50672;BME280;46021;55.882;37.654;2022-11-09T06:40:06;99542.88;;;6.80;86.74
50672;BME280;46021;55.882;37.654;2022-11-09T06:42:33;99548.00;;;6.83;86.55
50672;BME280;46021;55.882;37.654;2022-11-09T06:45:00;99554.84;;;6.88;86.55
50672;BME280;46021;55.882;37.654;2022-11-09T06:47:29;99549.59;;;6.91;86.22
50672;BME280;46021;55.882;37.654;2022-11-09T06:49:56;99537.47;;;6.93;86.45
50672;BME280;46021;55.882;37.654;2022-11-09T06:52:23;99555.47;;;7.00;86.00
50672;BME280;46021;55.882;37.654;2022-11-09T06:54:52;99555.47;;;7.00;86.28
50672;BME280;46021;55.882;37.654;2022-11-09T06:57:19;99558.19;;;6.93;86.16
50672;BME280;46021;55.882;37.654;2022-11-09T06:59:46;99572.00;;;6.93;85.89
50672;BME280;46021;55.882;37.654;2022-11-09T07:02:15;99576.38;;;6.91;86.02
50672;BME280;46021;55.882;37.654;2022-11-09T07:04:43;99575.41;;;6.95;85.79
50672;BME280;46021;55.882;37.654;2022-11-09T07:07:10;99583.31;;;6.89;86.32
50672;BME280;46021;55.882;37.654;2022-11-09T07:09:37;99573.88;;;6.87;85.98
50672;BME280;46021;55.882;37.654;2022-11-09T07:12:06;99586.69;;;6.93;86.52
50672;BME280;46021;55.882;37.654;2022-11-09T07:14:33;99584.88;;;6.99;86.63
50672;BME280;46021;55.882;37.654;2022-11-09T07:17:01;99564.22;;;6.93;86.23
50672;BME280;46021;55.882;37.654;2022-11-09T07:19:28;99583.03;;;7.05;86.66
50672;BME280;46021;55.882;37.654;2022-11-09T07:21:56;99582.00;;;7.13;86.74
50672;BME280;46021;55.882;37.654;2022-11-09T07:24:23;99583.66;;;7.16;86.58
50672;BME280;46021;55.882;37.654;2022-11-09T07:26:50;99587.97;;;7.18;86.78
50672;BME280;46021;55.882;37.654;2022-11-09T07:29:18;99579.25;;;7.21;85.96
50672;BME280;46021;55.882;37.654;2022-11-09T07:31:45;99584.31;;;7.27;86.08
50672;BME280;46021;55.882;37.654;2022-11-09T07:34:13;99588.72;;;7.22;86.32
50672;BME280;46021;55.882;37.654;2022-11-09T07:36:40;99583.66;;;7.16;86.01
50672;BME280;46021;55.882;37.654;2022-11-09T07:39:07;99579.34;;;7.16;85.69
50672;BME280;46021;55.882;37.654;2022-11-09T07:41:34;99581.88;;;7.19;86.61
50672;BME280;46021;55.882;37.654;2022-11-09T07:44:01;99577.47;;;7.23;85.72
50672;BME280;46021;55.882;37.654;2022-11-09T07:46:29;99580.91;;;7.25;86.14
50672;BME280;46021;55.882;37.654;2022-11-09T07:48:57;99579.22;;;7.24;86.31
50672;BME280;46021;55.882;37.654;2022-11-09T07:51:24;99593.84;;;7.25;86.39
50672;BME280;46021;55.882;37.654;2022-11-09T07:53:51;99591.25;;;7.27;86.23
50672;BME280;46021;55.882;37.654;2022-11-09T07:56:18;99593.72;;;7.31;86.16
50672;BME280;46021;55.882;37.654;2022-11-09T07:58:48;99586.88;;;7.29;86.24
50672;BME280;46021;55.882;37.654;2022-11-09T08:01:15;99584.47;;;7.19;85.82
50672;BME280;46021;55.882;37.654;2022-11-09T08:03:44;99587.00;;;7.24;86.22
50672;BME280;46021;55.882;37.654;2022-11-09T08:06:11;99597.31;;;7.26;85.83
50672;BME280;46021;55.882;37.654;2022-11-09T08:08:38;99602.44;;;7.29;85.81
50672;BME280;46021;55.882;37.654;2022-11-09T08:11:06;99599.03;;;7.27;86.19
50672;BME280;46021;55.882;37.654;2022-11-09T08:13:33;99603.41;;;7.23;85.93
50672;BME280;46021;55.882;37.654;2022-11-09T08:16:00;99598.06;;;7.32;85.64
50672;BME280;46021;55.882;37.654;2022-11-09T08:18:28;99598.19;;;7.26;85.86
50672;BME280;46021;55.882;37.654;2022-11-09T08:21:00;99606.78;;;7.28;86.15
50672;BME280;46021;55.882;37.654;2022-11-09T08:23:28;99606.03;;;7.21;86.48
50672;BME280;46021;55.882;37.654;2022-11-09T08:25:55;99603.38;;;7.26;86.29
50672;BME280;46021;55.882;37.654;2022-11-09T08:28:22;99603.41;;;7.23;86.80
50672;BME280;46021;55.882;37.654;2022-11-09T08:30:54;99602.41;;;7.30;86.17
50672;BME280;46021;55.882;37.654;2022-11-09T08:33:22;99590.41;;;7.26;86.29
50672;BME280;46021;55.882;37.654;2022-11-09T08:35:49;99591.97;;;7.33;86.61
50672;BME280;46021;55.882;37.654;2022-11-09T08:38:19;99596.88;;;7.49;86.45
50672;BME280;46021;55.882;37.654;2022-11-09T08:40:46;99593.38;;;7.48;86.66
50672;BME280;46021;55.882;37.654;2022-11-09T08:43:14;99583.91;;;7.49;85.81
50672;BME280;46021;55.882;37.654;2022-11-09T08:45:41;99584.75;;;7.49;85.90
50672;BME280;46021;55.882;37.654;2022-11-09T08:48:10;99594.38;;;7.42;86.15
50672;BME280;46021;55.882;37.654;2022-11-09T08:50:38;99591.84;;;7.41;86.47
50672;BME280;46021;55.882;37.654;2022-11-09T08:53:05;99583.16;;;7.42;86.20
50672;BME280;46021;55.882;37.654;2022-11-09T08:55:34;99576.13;;;7.47;85.83
50672;BME280;46021;55.882;37.654;2022-11-09T08:58:02;99583.91;;;7.49;86.49
50672;BME280;46021;55.882;37.654;2022-11-09T09:00:30;99576.81;;;7.55;85.94
50672;BME280;46021;55.882;37.654;2022-11-09T09:02:57;99583.06;;;7.47;85.88
50672;BME280;46021;55.882;37.654;2022-11-09T09:05:24;99579.53;;;7.51;85.68
50672;BME280;46021;55.882;37.654;2022-11-09T09:07:51;99583.91;;;7.49;86.13
50672;BME280;46021;55.882;37.654;2022-11-09T09:10:18;99585.53;;;7.53;86.02
50672;BME280;46021;55.882;37.654;2022-11-09T09:12:47;99583.75;;;7.55;86.07
50672;BME280;46021;55.882;37.654;2022-11-09T09:15:14;99592.59;;;7.45;85.62
50672;BME280;46021;55.882;37.654;2022-11-09T09:17:41;99598.56;;;7.48;86.39
50672;BME280;46021;55.882;37.654;2022-11-09T09:20:09;99585.63;;;7.48;86.17
50672;BME280;46021;55.882;37.654;2022-11-09T09:22:36;99596.88;;;7.49;86.15
50672;BME280;46021;55.882;37.654;2022-11-09T09:25:04;99587.41;;;7.45;85.93
50672;BME280;46021;55.882;37.654;2022-11-09T09:27:32;99577.88;;;7.47;85.74
50672;BME280;46021;55.882;37.654;2022-11-09T09:30:01;99590.91;;;7.44;86.34
50672;BME280;46021;55.882;37.654;2022-11-09T09:32:29;99597.63;;;7.52;86.13
50672;BME280;46021;55.882;37.654;2022-11-09T09:34:56;99573.44;;;7.52;85.53
50672;BME280;46021;55.882;37.654;2022-11-09T09:37:23;99577.47;;;7.65;86.05
50672;BME280;46021;55.882;37.654;2022-11-09T09:39:50;99580.81;;;7.72;85.75
50672;BME280;46021;55.882;37.654;2022-11-09T09:42:26;99574.09;;;7.61;85.87
50672;BME280;46021;55.882;37.654;2022-11-09T09:45:01;99587.03;;;7.63;85.38
50672;BME280;46021;55.882;37.654;2022-11-09T09:47:41;99574.19;;;7.57;85.59
50672;BME280;46021;55.882;37.654;2022-11-09T09:50:14;99580.25;;;7.56;85.39
50672;BME280;46021;55.882;37.654;2022-11-09T09:52:46;99573.28;;;7.58;85.12
50672;BME280;46021;55.882;37.654;2022-11-09T09:55:21;99575.03;;;7.59;85.60
50672;BME280;46021;55.882;37.654;2022-11-09T09:57:54;99576.75;;;7.60;85.81
50672;BME280;46021;55.882;37.654;2022-11-09T10:00:25;99571.56;;;7.60;85.53
50672;BME280;46021;55.882;37.654;2022-11-09T10:02:54;99582.06;;;7.52;86.60
50672;BME280;46021;55.882;37.654;2022-11-09T10:05:26;99580.25;;;7.56;86.80
50672;BME280;46021;55.882;37.654;2022-11-09T10:08:05;99584.44;;;7.63;85.90
50672;BME280;46021;55.882;37.654;2022-11-09T10:10:40;99591.19;;;7.72;85.86
50672;BME280;46021;55.882;37.654;2022-11-09T10:13:36;99584.41;;;7.65;85.13
50672;BME280;46021;55.882;37.654;2022-11-09T10:16:11;99586.03;;;7.69;86.04
50672;BME280;46021;55.882;37.654;2022-11-09T10:18:52;99584.47;;;7.61;85.71
50672;BME280;46021;55.882;37.654;2022-11-09T10:21:30;99583.75;;;7.55;85.79
50672;BME280;46021;55.882;37.654;2022-11-09T10:24:10;99601.94;;;7.53;86.14
50672;BME280;46021;55.882;37.654;2022-11-09T10:26:42;99578.63;;;7.52;85.79
50672;BME280;46021;55.882;37.654;2022-11-09T10:29:19;99583.63;;;7.61;86.25
50672;BME280;46021;55.882;37.654;2022-11-09T10:31:50;99583.63;;;7.61;86.76
50672;BME280;46021;55.882;37.654;2022-11-09T10:34:19;99580.16;;;7.62;85.99
50672;BME280;46021;55.882;37.654;2022-11-09T10:36:55;99580.06;;;7.65;85.46
50672;BME280;46021;55.882;37.654;2022-11-09T10:39:23;99580.81;;;7.72;86.40
50672;BME280;46021;55.882;37.654;2022-11-09T10:42:10;99584.16;;;7.77;85.88
50672;BME280;46021;55.882;37.654;2022-11-09T10:44:57;99593.59;;;7.79;85.27
50672;BME280;46021;55.882;37.654;2022-11-09T10:47:48;99591.09;;;7.75;85.42
50672;BME280;46021;55.882;37.654;2022-11-09T10:50:36;99588.47;;;7.76;85.91
50672;BME280;46021;55.882;37.654;2022-11-09T10:53:25;99581.44;;;7.81;85.65
50672;BME280;46021;55.882;37.654;2022-11-09T10:56:13;99581.28;;;7.89;85.44
50672;BME280;46021;55.882;37.654;2022-11-09T10:58:59;99587.25;;;7.93;85.51
50672;BME280;46021;55.882;37.654;2022-11-09T11:01:45;99591.69;;;7.88;85.88
50672;BME280;46021;55.882;37.654;2022-11-09T11:04:32;99586.59;;;7.85;86.22
50672;BME280;46021;55.882;37.654;2022-11-09T11:07:20;99586.75;;;7.77;85.66
50672;BME280;46021;55.882;37.654;2022-11-09T11:10:10;99580.69;;;7.76;86.20
50672;BME280;46021;55.882;37.654;2022-11-09T11:13:20;99583.38;;;7.73;85.78
50672;BME280;46021;55.882;37.654;2022-11-09T11:16:26;99579.19;;;7.66;87.05
50672;BME280;46021;55.882;37.654;2022-11-09T11:19:27;99585.19;;;7.68;86.63
50672;BME280;46021;55.882;37.654;2022-11-09T11:22:21;99584.34;;;7.68;86.78
50672;BME280;46021;55.882;37.654;2022-11-09T11:25:17;99575.81;;;7.63;86.57
50672;BME280;46021;55.882;37.654;2022-11-09T11:28:14;99577.44;;;7.67;86.58
50672;BME280;46021;55.882;37.654;2022-11-09T11:31:03;99574.03;;;7.65;86.60
50672;BME280;46021;55.882;37.654;2022-11-09T11:33:49;99574.88;;;7.65;87.31
50672;BME280;46021;55.882;37.654;2022-11-09T11:36:41;99574.91;;;7.64;86.54
50672;BME280;46021;55.882;37.654;2022-11-09T11:39:50;99576.75;;;7.60;86.63
50672;BME280;46021;55.882;37.654;2022-11-09T11:43:05;99583.63;;;7.61;87.39
50672;BME280;46021;55.882;37.654;2022-11-09T11:46:03;99578.56;;;7.55;87.19
50672;BME280;46021;55.882;37.654;2022-11-09T11:52:16;99578.72;;;7.49;88.15
50672;BME280;46021;55.882;37.654;2022-11-09T11:58:40;99567.22;;;7.60;86.98
50672;BME280;46021;55.882;37.654;2022-11-09T12:01:40;99580.94;;;7.66;87.51
50672;BME280;46021;55.882;37.654;2022-11-09T12:04:52;99579.88;;;7.74;87.76
50672;BME280;46021;55.882;37.654;2022-11-09T12:07:51;99581.59;;;7.75;87.54
50672;BME280;46021;55.882;37.654;2022-11-09T12:10:48;99573.03;;;7.70;87.42
50672;BME280;46021;55.882;37.654;2022-11-09T12:13:52;99574.78;;;7.71;87.15
50672;BME280;46021;55.882;37.654;2022-11-09T12:16:47;99578.19;;;7.73;87.31
50672;BME280;46021;55.882;37.654;2022-11-09T12:19:43;99574.81;;;7.68;88.08
50672;BME280;46021;55.882;37.654;2022-11-09T12:22:37;99593.06;;;7.64;87.28
50672;BME280;46021;55.882;37.654;2022-11-09T12:25:28;99574.16;;;7.60;88.04
50672;BME280;46021;55.882;37.654;2022-11-09T12:28:28;99587.03;;;7.63;87.89
50672;BME280;46021;55.882;37.654;2022-11-09T12:31:28;99588.66;;;7.67;87.55
50672;BME280;46021;55.882;37.654;2022-11-09T12:34:20;99594.84;;;7.61;88.06
50672;BME280;46021;55.882;37.654;2022-11-09T12:37:11;99581.06;;;7.59;87.57
50672;BME280;46021;55.882;37.654;2022-11-09T12:40:04;99590.63;;;7.56;88.27
50672;BME280;46021;55.882;37.654;2022-11-09T12:42:55;99587.16;;;7.57;88.44
50672;BME280;46021;55.882;37.654;2022-11-09T12:45:44;99575.03;;;7.59;88.06
50672;BME280;46021;55.882;37.654;2022-11-09T12:48:34;99570.81;;;7.53;88.17
50672;BME280;46021;55.882;37.654;2022-11-09T12:51:20;99587.13;;;7.60;88.11
50672;BME280;46021;55.882;37.654;2022-11-09T12:54:08;99574.28;;;7.52;88.54
50672;BME280;46021;55.882;37.654;2022-11-09T12:56:56;99598.13;;;7.71;88.14
50672;BME280;46021;55.882;37.654;2022-11-09T12:59:47;99590.44;;;7.65;88.63
50672;BME280;46021;55.882;37.654;2022-11-09T13:02:35;99592.97;;;7.70;87.86
50672;BME280;46021;55.882;37.654;2022-11-09T13:05:29;99602.34;;;7.75;87.79
50672;BME280;46021;55.882;37.654;2022-11-09T13:08:19;99612.66;;;7.78;87.60
50672;BME280;46021;55.882;37.654;2022-11-09T13:11:34;99612.63;;;7.80;87.39
50672;BME280;46021;55.882;37.654;2022-11-09T13:14:45;99604.13;;;7.73;88.07
50672;BME280;46021;55.882;37.654;2022-11-09T13:20:46;99620.41;;;7.80;87.76
50672;BME280;46021;55.882;37.654;2022-11-09T13:23:34;99622.19;;;7.78;87.49
50672;BME280;46021;55.882;37.654;2022-11-09T13:26:23;99617.84;;;7.78;87.57
50672;BME280;46021;55.882;37.654;2022-11-09T13:29:21;99620.38;;;7.81;87.05
50672;BME280;46021;55.882;37.654;2022-11-09T13:32:28;99630.72;;;7.83;87.18
50672;BME280;46021;55.882;37.654;2022-11-09T13:38:36;99637.81;;;7.75;87.72
50672;BME280;46021;55.882;37.654;2022-11-09T13:41:52;99624.88;;;7.73;87.83
50672;BME280;46021;55.882;37.654;2022-11-09T13:44:38;99622.22;;;7.76;87.39
50672;BME280;46021;55.882;37.654;2022-11-09T13:47:29;99620.50;;;7.77;86.90